Terminal Aerodrome Forecast
Issued by NWS

Home | Current Version | Previous Version | Graphics & Text | Print | Product List | Glossary On
Versions: 1 2 3 4 5 6 7 8 9 10 11 12 13 14 15 16 17
000
FTUS43 KMPX 200520
TAFRNH
TAF
KRNH 200520Z 2006/2106 04009KT P6SM OVC009
     FM200900 02007KT 4SM -SN OVC009
     FM201000 01007KT 1SM -SN VV007
     FM201200 36006KT 4SM -SN OVC015
     FM201400 33008KT P6SM OVC015
     FM202200 29009KT P6SM BKN025=

USA.gov is the U.S. government's official web portal to all federal, state and local government web resources and services.